sensor_id;sensor_type;location;lat;lon;timestamp;P1;durP1;ratioP1;P2;durP2;ratioP2
146;SDS011;45999;48.808;9.182;2023-05-10T00:00:00;2.50;;;1.20;;
146;SDS011;45999;48.808;9.182;2023-05-10T00:02:27;4.67;;;1.10;;
146;SDS011;45999;48.808;9.182;2023-05-10T00:04:53;1.23;;;1.17;;
146;SDS011;45999;48.808;9.182;2023-05-10T00:07:19;1.80;;;0.90;;
146;SDS011;45999;48.808;9.182;2023-05-10T00:09:46;2.30;;;1.00;;
146;SDS011;45999;48.808;9.182;2023-05-10T00:12:12;2.10;;;0.80;;
146;SDS011;45999;48.808;9.182;2023-05-10T00:14:39;1.07;;;0.60;;
146;SDS011;45999;48.808;9.182;2023-05-10T00:17:05;0.60;;;0.60;;
146;SDS011;45999;48.808;9.182;2023-05-10T00:19:31;0.90;;;0.60;;
146;SDS011;45999;48.808;9.182;2023-05-10T00:21:58;0.70;;;0.70;;
146;SDS011;45999;48.808;9.182;2023-05-10T00:24:24;1.53;;;0.57;;
146;SDS011;45999;48.808;9.182;2023-05-10T00:26:50;1.90;;;0.40;;
146;SDS011;45999;48.808;9.182;2023-05-10T00:29:17;1.70;;;0.50;;
146;SDS011;45999;48.808;9.182;2023-05-10T00:31:45;1.37;;;0.47;;
146;SDS011;45999;48.808;9.182;2023-05-10T00:34:18;2.00;;;0.30;;
146;SDS011;45999;48.808;9.182;2023-05-10T00:36:49;1.23;;;0.40;;
146;SDS011;45999;48.808;9.182;2023-05-10T00:39:18;0.37;;;0.30;;
146;SDS011;45999;48.808;9.182;2023-05-10T00:41:45;0.30;;;0.30;;
146;SDS011;45999;48.808;9.182;2023-05-10T00:44:12;1.37;;;0.40;;
146;SDS011;45999;48.808;9.182;2023-05-10T00:46:38;0.40;;;0.40;;
146;SDS011;45999;48.808;9.182;2023-05-10T00:49:05;0.93;;;0.30;;
146;SDS011;45999;48.808;9.182;2023-05-10T00:51:32;0.57;;;0.30;;
146;SDS011;45999;48.808;9.182;2023-05-10T00:53:58;1.63;;;0.43;;
146;SDS011;45999;48.808;9.182;2023-05-10T00:56:25;0.47;;;0.40;;
146;SDS011;45999;48.808;9.182;2023-05-10T00:58:54;2.47;;;0.50;;
146;SDS011;45999;48.808;9.182;2023-05-10T01:01:21;0.77;;;0.40;;
146;SDS011;45999;48.808;9.182;2023-05-10T01:03:48;0.30;;;0.30;;
146;SDS011;45999;48.808;9.182;2023-05-10T01:06:14;0.30;;;0.30;;
146;SDS011;45999;48.808;9.182;2023-05-10T01:08:41;0.40;;;0.40;;
146;SDS011;45999;48.808;9.182;2023-05-10T01:11:07;2.70;;;0.40;;
146;SDS011;45999;48.808;9.182;2023-05-10T01:13:35;1.50;;;0.30;;
146;SDS011;45999;48.808;9.182;2023-05-10T01:16:04;1.17;;;0.40;;
146;SDS011;45999;48.808;9.182;2023-05-10T01:18:35;1.10;;;0.40;;
146;SDS011;45999;48.808;9.182;2023-05-10T01:21:10;0.40;;;0.40;;
146;SDS011;45999;48.808;9.182;2023-05-10T01:23:58;1.03;;;0.50;;
146;SDS011;45999;48.808;9.182;2023-05-10T01:30:08;0.53;;;0.30;;
146;SDS011;45999;48.808;9.182;2023-05-10T01:41:19;0.50;;;0.50;;
146;SDS011;45999;48.808;9.182;2023-05-10T01:43:53;0.67;;;0.50;;
146;SDS011;45999;48.808;9.182;2023-05-10T01:46:33;0.63;;;0.60;;
146;SDS011;45999;48.808;9.182;2023-05-10T01:49:02;1.23;;;0.60;;
146;SDS011;45999;48.808;9.182;2023-05-10T01:52:03;0.70;;;0.70;;
146;SDS011;45999;48.808;9.182;2023-05-10T01:54:25;1.17;;;0.60;;
146;SDS011;45999;48.808;9.182;2023-05-10T01:57:02;0.57;;;0.50;;
146;SDS011;45999;48.808;9.182;2023-05-10T01:59:34;3.37;;;0.60;;
146;SDS011;45999;48.808;9.182;2023-05-10T02:02:04;1.00;;;0.60;;
146;SDS011;45999;48.808;9.182;2023-05-10T02:04:31;0.87;;;0.50;;
146;SDS011;45999;48.808;9.182;2023-05-10T02:07:02;0.77;;;0.63;;
146;SDS011;45999;48.808;9.182;2023-05-10T02:09:28;0.50;;;0.50;;
146;SDS011;45999;48.808;9.182;2023-05-10T02:11:58;0.60;;;0.60;;
146;SDS011;45999;48.808;9.182;2023-05-10T02:14:27;0.70;;;0.70;;
146;SDS011;45999;48.808;9.182;2023-05-10T02:16:56;0.80;;;0.53;;
146;SDS011;45999;48.808;9.182;2023-05-10T02:19:24;0.83;;;0.67;;
146;SDS011;45999;48.808;9.182;2023-05-10T02:21:52;1.60;;;0.50;;
146;SDS011;45999;48.808;9.182;2023-05-10T02:24:21;0.80;;;0.57;;
146;SDS011;45999;48.808;9.182;2023-05-10T02:26:50;0.60;;;0.60;;
146;SDS011;45999;48.808;9.182;2023-05-10T02:29:20;2.40;;;0.70;;
146;SDS011;45999;48.808;9.182;2023-05-10T02:31:49;3.40;;;0.60;;
146;SDS011;45999;48.808;9.182;2023-05-10T02:34:18;1.90;;;0.60;;
146;SDS011;45999;48.808;9.182;2023-05-10T02:36:46;0.53;;;0.53;;
146;SDS011;45999;48.808;9.182;2023-05-10T02:39:13;0.60;;;0.40;;
146;SDS011;45999;48.808;9.182;2023-05-10T02:41:41;1.90;;;0.60;;
146;SDS011;45999;48.808;9.182;2023-05-10T02:44:08;0.50;;;0.50;;
146;SDS011;45999;48.808;9.182;2023-05-10T02:46:35;2.37;;;0.50;;
146;SDS011;45999;48.808;9.182;2023-05-10T02:49:02;0.50;;;0.50;;
146;SDS011;45999;48.808;9.182;2023-05-10T02:51:31;2.43;;;0.60;;
146;SDS011;45999;48.808;9.182;2023-05-10T02:53:59;0.90;;;0.60;;
146;SDS011;45999;48.808;9.182;2023-05-10T02:56:33;1.07;;;0.60;;
146;SDS011;45999;48.808;9.182;2023-05-10T02:59:01;0.50;;;0.50;;
146;SDS011;45999;48.808;9.182;2023-05-10T03:01:28;1.27;;;0.50;;
146;SDS011;45999;48.808;9.182;2023-05-10T03:03:55;0.50;;;0.50;;
146;SDS011;45999;48.808;9.182;2023-05-10T03:06:21;0.50;;;0.50;;
146;SDS011;45999;48.808;9.182;2023-05-10T03:08:48;1.23;;;0.50;;
146;SDS011;45999;48.808;9.182;2023-05-10T03:14:04;1.50;;;0.70;;
146;SDS011;45999;48.808;9.182;2023-05-10T03:16:41;0.63;;;0.50;;
146;SDS011;45999;48.808;9.182;2023-05-10T03:19:12;1.43;;;0.50;;
146;SDS011;45999;48.808;9.182;2023-05-10T03:21:57;0.97;;;0.60;;
146;SDS011;45999;48.808;9.182;2023-05-10T03:24:29;0.63;;;0.50;;
146;SDS011;45999;48.808;9.182;2023-05-10T03:26:56;2.03;;;0.60;;
146;SDS011;45999;48.808;9.182;2023-05-10T03:29:27;1.67;;;0.60;;
146;SDS011;45999;48.808;9.182;2023-05-10T03:31:55;0.70;;;0.60;;
146;SDS011;45999;48.808;9.182;2023-05-10T03:34:24;2.10;;;0.70;;
146;SDS011;45999;48.808;9.182;2023-05-10T03:36:50;0.70;;;0.70;;
146;SDS011;45999;48.808;9.182;2023-05-10T03:39:17;1.33;;;0.87;;
146;SDS011;45999;48.808;9.182;2023-05-10T03:41:44;0.90;;;0.90;;
146;SDS011;45999;48.808;9.182;2023-05-10T03:44:10;1.93;;;1.07;;
146;SDS011;45999;48.808;9.182;2023-05-10T03:46:36;3.23;;;1.30;;
146;SDS011;45999;48.808;9.182;2023-05-10T03:49:03;0.80;;;0.73;;
146;SDS011;45999;48.808;9.182;2023-05-10T03:51:29;0.83;;;0.80;;
146;SDS011;45999;48.808;9.182;2023-05-10T03:53:56;1.20;;;1.10;;
146;SDS011;45999;48.808;9.182;2023-05-10T03:56:22;0.80;;;0.80;;
146;SDS011;45999;48.808;9.182;2023-05-10T03:58:49;1.23;;;1.00;;
146;SDS011;45999;48.808;9.182;2023-05-10T04:01:15;1.07;;;1.00;;
146;SDS011;45999;48.808;9.182;2023-05-10T04:03:41;0.90;;;0.90;;
146;SDS011;45999;48.808;9.182;2023-05-10T04:06:08;0.80;;;0.80;;
146;SDS011;45999;48.808;9.182;2023-05-10T04:08:36;2.53;;;0.83;;
146;SDS011;45999;48.808;9.182;2023-05-10T04:11:09;3.60;;;0.80;;
146;SDS011;45999;48.808;9.182;2023-05-10T04:13:37;1.63;;;0.80;;
146;SDS011;45999;48.808;9.182;2023-05-10T04:16:04;1.33;;;0.70;;
146;SDS011;45999;48.808;9.182;2023-05-10T04:18:30;3.50;;;0.80;;
146;SDS011;45999;48.808;9.182;2023-05-10T04:20:57;1.10;;;1.00;;
146;SDS011;45999;48.808;9.182;2023-05-10T04:23:24;2.67;;;0.80;;
146;SDS011;45999;48.808;9.182;2023-05-10T04:25:50;0.83;;;0.83;;
146;SDS011;45999;48.808;9.182;2023-05-10T04:28:16;3.60;;;0.80;;
146;SDS011;45999;48.808;9.182;2023-05-10T04:30:43;2.63;;;0.90;;
146;SDS011;45999;48.808;9.182;2023-05-10T04:33:09;0.80;;;0.80;;
146;SDS011;45999;48.808;9.182;2023-05-10T04:35:35;1.00;;;1.00;;
146;SDS011;45999;48.808;9.182;2023-05-10T04:38:02;0.93;;;0.80;;
146;SDS011;45999;48.808;9.182;2023-05-10T04:40:28;2.60;;;0.87;;
146;SDS011;45999;48.808;9.182;2023-05-10T04:42:54;0.93;;;0.80;;
146;SDS011;45999;48.808;9.182;2023-05-10T04:45:21;1.20;;;0.90;;
146;SDS011;45999;48.808;9.182;2023-05-10T04:47:47;1.37;;;0.70;;
146;SDS011;45999;48.808;9.182;2023-05-10T04:50:13;0.90;;;0.83;;
146;SDS011;45999;48.808;9.182;2023-05-10T04:52:40;1.10;;;1.00;;
146;SDS011;45999;48.808;9.182;2023-05-10T04:55:06;1.00;;;0.80;;
146;SDS011;45999;48.808;9.182;2023-05-10T04:57:34;1.30;;;1.10;;
146;SDS011;45999;48.808;9.182;2023-05-10T05:00:01;2.70;;;1.37;;
146;SDS011;45999;48.808;9.182;2023-05-10T05:02:27;2.30;;;1.00;;
146;SDS011;45999;48.808;9.182;2023-05-10T05:04:55;1.43;;;0.70;;
146;SDS011;45999;48.808;9.182;2023-05-10T05:07:23;1.90;;;0.90;;
146;SDS011;45999;48.808;9.182;2023-05-10T05:09:50;2.10;;;0.90;;
146;SDS011;45999;48.808;9.182;2023-05-10T05:12:16;1.90;;;0.70;;
146;SDS011;45999;48.808;9.182;2023-05-10T05:14:43;1.70;;;0.80;;
146;SDS011;45999;48.808;9.182;2023-05-10T05:17:09;2.50;;;0.80;;
146;SDS011;45999;48.808;9.182;2023-05-10T05:19:35;1.60;;;0.83;;
146;SDS011;45999;48.808;9.182;2023-05-10T05:22:02;1.40;;;0.70;;
146;SDS011;45999;48.808;9.182;2023-05-10T05:24:28;1.67;;;0.80;;
146;SDS011;45999;48.808;9.182;2023-05-10T05:26:55;1.63;;;1.00;;
146;SDS011;45999;48.808;9.182;2023-05-10T05:29:21;1.77;;;0.90;;
146;SDS011;45999;48.808;9.182;2023-05-10T05:31:47;0.60;;;0.60;;
146;SDS011;45999;48.808;9.182;2023-05-10T05:34:14;0.80;;;0.80;;
146;SDS011;45999;48.808;9.182;2023-05-10T05:36:40;1.33;;;0.80;;
146;SDS011;45999;48.808;9.182;2023-05-10T05:39:07;2.93;;;0.80;;
146;SDS011;45999;48.808;9.182;2023-05-10T05:41:33;1.17;;;0.80;;
146;SDS011;45999;48.808;9.182;2023-05-10T05:43:59;1.23;;;0.70;;
146;SDS011;45999;48.808;9.182;2023-05-10T05:46:26;0.80;;;0.80;;
146;SDS011;45999;48.808;9.182;2023-05-10T05:48:52;1.90;;;1.00;;
146;SDS011;45999;48.808;9.182;2023-05-10T05:51:18;1.40;;;0.83;;
146;SDS011;45999;48.808;9.182;2023-05-10T05:53:45;1.63;;;0.97;;
146;SDS011;45999;48.808;9.182;2023-05-10T05:56:11;1.80;;;0.90;;
146;SDS011;45999;48.808;9.182;2023-05-10T05:58:38;1.60;;;0.90;;
146;SDS011;45999;48.808;9.182;2023-05-10T06:01:04;1.20;;;1.10;;
146;SDS011;45999;48.808;9.182;2023-05-10T06:03:30;1.33;;;0.83;;
146;SDS011;45999;48.808;9.182;2023-05-10T06:05:57;2.27;;;1.00;;
146;SDS011;45999;48.808;9.182;2023-05-10T06:08:23;2.60;;;0.80;;
146;SDS011;45999;48.808;9.182;2023-05-10T06:10:50;3.77;;;1.20;;
146;SDS011;45999;48.808;9.182;2023-05-10T06:13:17;1.80;;;0.70;;
146;SDS011;45999;48.808;9.182;2023-05-10T06:15:43;3.23;;;1.10;;
146;SDS011;45999;48.808;9.182;2023-05-10T06:18:09;0.90;;;0.90;;
146;SDS011;45999;48.808;9.182;2023-05-10T06:20:36;1.50;;;0.90;;
146;SDS011;45999;48.808;9.182;2023-05-10T06:23:02;1.00;;;0.90;;
146;SDS011;45999;48.808;9.182;2023-05-10T06:25:28;2.03;;;1.03;;
146;SDS011;45999;48.808;9.182;2023-05-10T06:27:55;0.90;;;0.90;;
146;SDS011;45999;48.808;9.182;2023-05-10T06:30:23;0.80;;;0.80;;
146;SDS011;45999;48.808;9.182;2023-05-10T06:32:53;0.77;;;0.73;;
146;SDS011;45999;48.808;9.182;2023-05-10T06:35:19;1.53;;;1.20;;
146;SDS011;45999;48.808;9.182;2023-05-10T06:37:46;2.23;;;0.90;;
146;SDS011;45999;48.808;9.182;2023-05-10T06:40:12;1.80;;;1.10;;
146;SDS011;45999;48.808;9.182;2023-05-10T06:42:39;1.97;;;0.80;;
146;SDS011;45999;48.808;9.182;2023-05-10T06:45:05;0.83;;;0.83;;
146;SDS011;45999;48.808;9.182;2023-05-10T06:47:33;1.40;;;0.97;;
146;SDS011;45999;48.808;9.182;2023-05-10T06:49:59;3.23;;;0.90;;
146;SDS011;45999;48.808;9.182;2023-05-10T06:52:26;1.33;;;0.90;;
146;SDS011;45999;48.808;9.182;2023-05-10T06:54:52;1.50;;;1.03;;
146;SDS011;45999;48.808;9.182;2023-05-10T06:57:19;0.90;;;0.90;;
146;SDS011;45999;48.808;9.182;2023-05-10T06:59:45;0.93;;;0.93;;
146;SDS011;45999;48.808;9.182;2023-05-10T07:02:12;4.20;;;0.90;;
146;SDS011;45999;48.808;9.182;2023-05-10T07:04:39;1.93;;;1.07;;
146;SDS011;45999;48.808;9.182;2023-05-10T07:07:06;2.43;;;1.17;;
146;SDS011;45999;48.808;9.182;2023-05-10T07:09:33;1.30;;;1.20;;
146;SDS011;45999;48.808;9.182;2023-05-10T07:11:59;2.73;;;1.03;;
146;SDS011;45999;48.808;9.182;2023-05-10T07:14:26;1.43;;;0.80;;
146;SDS011;45999;48.808;9.182;2023-05-10T07:16:53;0.87;;;0.87;;
146;SDS011;45999;48.808;9.182;2023-05-10T07:19:20;0.70;;;0.70;;
146;SDS011;45999;48.808;9.182;2023-05-10T07:21:46;2.17;;;1.00;;
146;SDS011;45999;48.808;9.182;2023-05-10T07:24:13;2.10;;;1.00;;
146;SDS011;45999;48.808;9.182;2023-05-10T07:26:39;1.97;;;0.90;;
146;SDS011;45999;48.808;9.182;2023-05-10T07:29:05;1.63;;;0.90;;
146;SDS011;45999;48.808;9.182;2023-05-10T07:31:32;1.20;;;1.10;;
146;SDS011;45999;48.808;9.182;2023-05-10T07:33:58;2.30;;;1.00;;
146;SDS011;45999;48.808;9.182;2023-05-10T07:36:25;0.90;;;0.90;;
146;SDS011;45999;48.808;9.182;2023-05-10T07:38:51;3.03;;;0.90;;
146;SDS011;45999;48.808;9.182;2023-05-10T07:41:17;1.83;;;1.20;;
146;SDS011;45999;48.808;9.182;2023-05-10T07:43:44;1.77;;;1.00;;
146;SDS011;45999;48.808;9.182;2023-05-10T07:46:10;1.40;;;1.00;;
146;SDS011;45999;48.808;9.182;2023-05-10T07:48:36;2.60;;;1.00;;
146;SDS011;45999;48.808;9.182;2023-05-10T07:51:03;1.37;;;0.80;;
146;SDS011;45999;48.808;9.182;2023-05-10T07:53:31;0.80;;;0.80;;
146;SDS011;45999;48.808;9.182;2023-05-10T07:55:57;1.47;;;0.90;;
146;SDS011;45999;48.808;9.182;2023-05-10T07:58:24;1.00;;;0.70;;
146;SDS011;45999;48.808;9.182;2023-05-10T08:00:51;1.40;;;0.67;;
146;SDS011;45999;48.808;9.182;2023-05-10T08:03:17;1.27;;;0.80;;
146;SDS011;45999;48.808;9.182;2023-05-10T08:05:43;0.70;;;0.70;;
146;SDS011;45999;48.808;9.182;2023-05-10T08:08:10;1.03;;;0.80;;
146;SDS011;45999;48.808;9.182;2023-05-10T08:10:36;0.97;;;0.70;;
146;SDS011;45999;48.808;9.182;2023-05-10T08:13:03;2.10;;;0.70;;
146;SDS011;45999;48.808;9.182;2023-05-10T08:15:29;1.03;;;0.70;;
146;SDS011;45999;48.808;9.182;2023-05-10T08:17:55;2.53;;;0.80;;
146;SDS011;45999;48.808;9.182;2023-05-10T08:20:22;1.87;;;0.80;;
146;SDS011;45999;48.808;9.182;2023-05-10T08:22:48;1.60;;;0.73;;
146;SDS011;45999;48.808;9.182;2023-05-10T08:25:14;0.97;;;0.70;;
146;SDS011;45999;48.808;9.182;2023-05-10T08:27:41;1.50;;;0.90;;
146;SDS011;45999;48.808;9.182;2023-05-10T08:30:07;2.57;;;0.70;;
146;SDS011;45999;48.808;9.182;2023-05-10T08:32:34;0.60;;;0.60;;
146;SDS011;45999;48.808;9.182;2023-05-10T08:35:02;0.83;;;0.80;;
146;SDS011;45999;48.808;9.182;2023-05-10T08:37:30;0.60;;;0.60;;
146;SDS011;45999;48.808;9.182;2023-05-10T08:39:57;1.30;;;0.60;;
146;SDS011;45999;48.808;9.182;2023-05-10T08:42:23;0.53;;;0.53;;
146;SDS011;45999;48.808;9.182;2023-05-10T08:44:54;1.30;;;0.70;;
146;SDS011;45999;48.808;9.182;2023-05-10T08:47:23;0.70;;;0.70;;
146;SDS011;45999;48.808;9.182;2023-05-10T08:49:49;1.47;;;0.63;;
146;SDS011;45999;48.808;9.182;2023-05-10T08:52:16;0.60;;;0.60;;
146;SDS011;45999;48.808;9.182;2023-05-10T08:54:43;0.93;;;0.60;;
146;SDS011;45999;48.808;9.182;2023-05-10T08:57:10;0.60;;;0.60;;
146;SDS011;45999;48.808;9.182;2023-05-10T08:59:36;0.77;;;0.60;;
146;SDS011;45999;48.808;9.182;2023-05-10T09:02:04;1.03;;;0.70;;
146;SDS011;45999;48.808;9.182;2023-05-10T09:04:31;0.50;;;0.50;;
146;SDS011;45999;48.808;9.182;2023-05-10T09:06:57;1.07;;;0.60;;
146;SDS011;45999;48.808;9.182;2023-05-10T09:09:24;0.60;;;0.60;;
146;SDS011;45999;48.808;9.182;2023-05-10T09:11:51;0.70;;;0.60;;
146;SDS011;45999;48.808;9.182;2023-05-10T09:14:18;4.67;;;0.60;;
146;SDS011;45999;48.808;9.182;2023-05-10T09:16:46;2.40;;;0.60;;
146;SDS011;45999;48.808;9.182;2023-05-10T09:19:12;0.63;;;0.60;;
146;SDS011;45999;48.808;9.182;2023-05-10T09:21:39;2.27;;;0.70;;
146;SDS011;45999;48.808;9.182;2023-05-10T09:24:06;0.57;;;0.57;;
146;SDS011;45999;48.808;9.182;2023-05-10T09:26:34;0.53;;;0.53;;
146;SDS011;45999;48.808;9.182;2023-05-10T09:29:01;1.47;;;0.70;;
146;SDS011;45999;48.808;9.182;2023-05-10T09:31:43;0.97;;;0.60;;
146;SDS011;45999;48.808;9.182;2023-05-10T09:34:09;2.67;;;0.70;;
146;SDS011;45999;48.808;9.182;2023-05-10T09:36:35;1.67;;;0.80;;
146;SDS011;45999;48.808;9.182;2023-05-10T09:39:02;1.03;;;0.60;;
146;SDS011;45999;48.808;9.182;2023-05-10T09:41:29;1.47;;;0.60;;
146;SDS011;45999;48.808;9.182;2023-05-10T09:43:55;3.23;;;0.60;;
146;SDS011;45999;48.808;9.182;2023-05-10T09:46:23;0.60;;;0.50;;
146;SDS011;45999;48.808;9.182;2023-05-10T09:48:49;2.20;;;0.60;;
146;SDS011;45999;48.808;9.182;2023-05-10T09:51:23;1.57;;;0.60;;
146;SDS011;45999;48.808;9.182;2023-05-10T09:54:10;1.00;;;0.73;;
146;SDS011;45999;48.808;9.182;2023-05-10T09:56:38;3.33;;;0.80;;
146;SDS011;45999;48.808;9.182;2023-05-10T09:59:05;1.27;;;0.50;;
146;SDS011;45999;48.808;9.182;2023-05-10T10:01:33;0.57;;;0.57;;
146;SDS011;45999;48.808;9.182;2023-05-10T10:04:06;1.60;;;0.63;;
146;SDS011;45999;48.808;9.182;2023-05-10T10:06:38;1.07;;;0.60;;
146;SDS011;45999;48.808;9.182;2023-05-10T10:09:06;0.50;;;0.50;;
146;SDS011;45999;48.808;9.182;2023-05-10T10:11:34;4.27;;;0.90;;
146;SDS011;45999;48.808;9.182;2023-05-10T10:14:02;1.17;;;0.60;;
146;SDS011;45999;48.808;9.182;2023-05-10T10:16:28;1.63;;;0.63;;
146;SDS011;45999;48.808;9.182;2023-05-10T10:18:55;1.00;;;0.70;;
146;SDS011;45999;48.808;9.182;2023-05-10T10:21:22;2.87;;;0.70;;
146;SDS011;45999;48.808;9.182;2023-05-10T10:23:49;2.40;;;0.97;;
146;SDS011;45999;48.808;9.182;2023-05-10T10:26:17;0.67;;;0.67;;
146;SDS011;45999;48.808;9.182;2023-05-10T10:34:21;1.20;;;1.00;;
146;SDS011;45999;48.808;9.182;2023-05-10T10:36:52;1.43;;;1.10;;
146;SDS011;45999;48.808;9.182;2023-05-10T10:39:21;2.47;;;0.80;;
146;SDS011;45999;48.808;9.182;2023-05-10T10:41:54;1.60;;;0.90;;
146;SDS011;45999;48.808;9.182;2023-05-10T10:49:24;0.60;;;0.60;;
146;SDS011;45999;48.808;9.182;2023-05-10T10:54:54;3.03;;;0.70;;
146;SDS011;45999;48.808;9.182;2023-05-10T10:57:25;1.63;;;0.70;;
146;SDS011;45999;48.808;9.182;2023-05-10T11:02:47;1.47;;;0.70;;
146;SDS011;45999;48.808;9.182;2023-05-10T11:05:27;1.07;;;0.57;;
146;SDS011;45999;48.808;9.182;2023-05-10T11:07:59;5.03;;;0.70;;
146;SDS011;45999;48.808;9.182;2023-05-10T11:10:32;2.43;;;0.60;;
146;SDS011;45999;48.808;9.182;2023-05-10T11:13:00;0.77;;;0.50;;
146;SDS011;45999;48.808;9.182;2023-05-10T11:15:31;0.50;;;0.40;;
146;SDS011;45999;48.808;9.182;2023-05-10T11:17:58;0.80;;;0.70;;
146;SDS011;45999;48.808;9.182;2023-05-10T11:20:27;2.53;;;0.60;;
146;SDS011;45999;48.808;9.182;2023-05-10T11:22:59;1.53;;;0.70;;
146;SDS011;45999;48.808;9.182;2023-05-10T11:25:40;1.23;;;0.67;;
146;SDS011;45999;48.808;9.182;2023-05-10T11:28:13;1.33;;;0.50;;
146;SDS011;45999;48.808;9.182;2023-05-10T11:30:41;0.60;;;0.60;;
146;SDS011;45999;48.808;9.182;2023-05-10T11:33:09;0.87;;;0.70;;
146;SDS011;45999;48.808;9.182;2023-05-10T11:35:40;1.07;;;0.63;;
146;SDS011;45999;48.808;9.182;2023-05-10T11:38:07;2.17;;;0.60;;
146;SDS011;45999;48.808;9.182;2023-05-10T11:40:34;0.87;;;0.60;;
146;SDS011;45999;48.808;9.182;2023-05-10T11:43:02;1.13;;;0.63;;
146;SDS011;45999;48.808;9.182;2023-05-10T11:45:31;2.37;;;0.70;;
146;SDS011;45999;48.808;9.182;2023-05-10T11:47:58;2.47;;;0.80;;
146;SDS011;45999;48.808;9.182;2023-05-10T11:50:25;2.10;;;0.73;;
146;SDS011;45999;48.808;9.182;2023-05-10T11:52:52;1.60;;;0.73;;
146;SDS011;45999;48.808;9.182;2023-05-10T11:55:19;1.07;;;0.70;;
146;SDS011;45999;48.808;9.182;2023-05-10T11:57:45;3.10;;;0.80;;
146;SDS011;45999;48.808;9.182;2023-05-10T12:00:15;1.70;;;0.87;;
146;SDS011;45999;48.808;9.182;2023-05-10T12:02:41;2.87;;;0.90;;
146;SDS011;45999;48.808;9.182;2023-05-10T12:05:08;2.38;;;0.75;;
146;SDS011;45999;48.808;9.182;2023-05-10T12:07:35;2.07;;;0.80;;
146;SDS011;45999;48.808;9.182;2023-05-10T12:12:36;0.83;;;0.80;;
146;SDS011;45999;48.808;9.182;2023-05-10T12:15:04;2.63;;;0.90;;
146;SDS011;45999;48.808;9.182;2023-05-10T12:17:32;2.47;;;0.90;;
146;SDS011;45999;48.808;9.182;2023-05-10T12:20:12;2.03;;;1.00;;
146;SDS011;45999;48.808;9.182;2023-05-10T12:22:52;3.50;;;1.13;;
146;SDS011;45999;48.808;9.182;2023-05-10T12:25:21;3.97;;;1.00;;
146;SDS011;45999;48.808;9.182;2023-05-10T12:27:50;2.10;;;1.00;;
146;SDS011;45999;48.808;9.182;2023-05-10T12:30:21;2.83;;;0.80;;
146;SDS011;45999;48.808;9.182;2023-05-10T12:32:49;3.03;;;0.93;;
146;SDS011;45999;48.808;9.182;2023-05-10T12:35:15;2.57;;;1.07;;
146;SDS011;45999;48.808;9.182;2023-05-10T12:37:43;3.10;;;0.90;;
146;SDS011;45999;48.808;9.182;2023-05-10T12:40:10;4.63;;;1.00;;
146;SDS011;45999;48.808;9.182;2023-05-10T12:42:37;0.83;;;0.83;;
146;SDS011;45999;48.808;9.182;2023-05-10T12:45:05;2.10;;;0.87;;
146;SDS011;45999;48.808;9.182;2023-05-10T12:47:32;2.77;;;0.70;;
146;SDS011;45999;48.808;9.182;2023-05-10T12:49:59;1.13;;;0.80;;
146;SDS011;45999;48.808;9.182;2023-05-10T12:52:27;1.90;;;0.90;;
146;SDS011;45999;48.808;9.182;2023-05-10T12:54:54;1.43;;;0.70;;
146;SDS011;45999;48.808;9.182;2023-05-10T12:57:21;1.40;;;1.00;;
146;SDS011;45999;48.808;9.182;2023-05-10T12:59:47;1.33;;;0.80;;
146;SDS011;45999;48.808;9.182;2023-05-10T13:02:13;1.17;;;0.87;;
146;SDS011;45999;48.808;9.182;2023-05-10T13:04:42;1.33;;;0.70;;
146;SDS011;45999;48.808;9.182;2023-05-10T13:07:09;2.73;;;0.80;;
146;SDS011;45999;48.808;9.182;2023-05-10T13:09:35;1.20;;;0.93;;
146;SDS011;45999;48.808;9.182;2023-05-10T13:12:02;1.87;;;0.90;;
146;SDS011;45999;48.808;9.182;2023-05-10T13:14:28;1.23;;;0.70;;
146;SDS011;45999;48.808;9.182;2023-05-10T13:16:55;2.30;;;0.80;;
146;SDS011;45999;48.808;9.182;2023-05-10T13:19:22;2.70;;;0.70;;
146;SDS011;45999;48.808;9.182;2023-05-10T13:21:48;1.20;;;0.60;;
146;SDS011;45999;48.808;9.182;2023-05-10T13:24:14;4.30;;;0.90;;
146;SDS011;45999;48.808;9.182;2023-05-10T13:26:42;2.40;;;0.80;;
146;SDS011;45999;48.808;9.182;2023-05-10T13:29:09;2.70;;;0.70;;
146;SDS011;45999;48.808;9.182;2023-05-10T13:31:35;1.53;;;1.03;;
146;SDS011;45999;48.808;9.182;2023-05-10T13:34:02;1.47;;;0.70;;
146;SDS011;45999;48.808;9.182;2023-05-10T13:36:28;5.10;;;1.00;;
146;SDS011;45999;48.808;9.182;2023-05-10T13:38:54;1.77;;;1.00;;
146;SDS011;45999;48.808;9.182;2023-05-10T13:41:21;1.43;;;0.70;;
146;SDS011;45999;48.808;9.182;2023-05-10T13:43:47;1.73;;;1.00;;
146;SDS011;45999;48.808;9.182;2023-05-10T13:46:14;1.27;;;0.80;;
146;SDS011;45999;48.808;9.182;2023-05-10T13:48:40;2.20;;;0.70;;
146;SDS011;45999;48.808;9.182;2023-05-10T13:51:07;2.40;;;1.00;;
146;SDS011;45999;48.808;9.182;2023-05-10T13:53:33;1.40;;;0.70;;
146;SDS011;45999;48.808;9.182;2023-05-10T13:55:59;1.63;;;0.90;;
146;SDS011;45999;48.808;9.182;2023-05-10T13:58:27;2.63;;;0.87;;
146;SDS011;45999;48.808;9.182;2023-05-10T14:00:53;2.83;;;0.60;;
146;SDS011;45999;48.808;9.182;2023-05-10T14:03:19;1.50;;;0.80;;
146;SDS011;45999;48.808;9.182;2023-05-10T14:05:46;1.20;;;0.70;;
146;SDS011;45999;48.808;9.182;2023-05-10T14:08:12;1.53;;;0.80;;
146;SDS011;45999;48.808;9.182;2023-05-10T14:10:39;2.70;;;0.90;;
146;SDS011;45999;48.808;9.182;2023-05-10T14:13:05;2.87;;;0.90;;
146;SDS011;45999;48.808;9.182;2023-05-10T14:15:32;2.97;;;1.00;;
146;SDS011;45999;48.808;9.182;2023-05-10T14:17:59;1.60;;;1.00;;
146;SDS011;45999;48.808;9.182;2023-05-10T14:20:25;2.40;;;0.87;;
146;SDS011;45999;48.808;9.182;2023-05-10T14:22:51;0.97;;;0.80;;
146;SDS011;45999;48.808;9.182;2023-05-10T14:25:18;2.97;;;0.77;;
146;SDS011;45999;48.808;9.182;2023-05-10T14:27:44;1.70;;;0.90;;
146;SDS011;45999;48.808;9.182;2023-05-10T14:30:11;1.83;;;0.70;;
146;SDS011;45999;48.808;9.182;2023-05-10T14:32:37;0.60;;;0.60;;
146;SDS011;45999;48.808;9.182;2023-05-10T14:35:04;3.00;;;0.70;;
146;SDS011;45999;48.808;9.182;2023-05-10T14:37:31;4.37;;;0.70;;
146;SDS011;45999;48.808;9.182;2023-05-10T14:39:57;2.20;;;0.80;;
146;SDS011;45999;48.808;9.182;2023-05-10T14:42:23;1.80;;;0.97;;
146;SDS011;45999;48.808;9.182;2023-05-10T14:44:50;1.70;;;0.80;;
146;SDS011;45999;48.808;9.182;2023-05-10T14:47:16;1.77;;;0.70;;
146;SDS011;45999;48.808;9.182;2023-05-10T14:49:42;1.63;;;0.70;;
146;SDS011;45999;48.808;9.182;2023-05-10T14:52:09;0.53;;;0.50;;
146;SDS011;45999;48.808;9.182;2023-05-10T14:54:37;1.03;;;0.70;;
146;SDS011;45999;48.808;9.182;2023-05-10T14:57:03;2.47;;;0.80;;
146;SDS011;45999;48.808;9.182;2023-05-10T14:59:29;1.87;;;0.83;;
146;SDS011;45999;48.808;9.182;2023-05-10T15:01:56;1.23;;;0.70;;
146;SDS011;45999;48.808;9.182;2023-05-10T15:04:22;0.97;;;0.67;;
146;SDS011;45999;48.808;9.182;2023-05-10T15:06:48;1.50;;;0.70;;
146;SDS011;45999;48.808;9.182;2023-05-10T15:09:15;1.20;;;0.70;;
146;SDS011;45999;48.808;9.182;2023-05-10T15:11:41;1.23;;;0.60;;
146;SDS011;45999;48.808;9.182;2023-05-10T15:14:09;2.30;;;0.70;;
146;SDS011;45999;48.808;9.182;2023-05-10T15:16:35;4.37;;;0.97;;
146;SDS011;45999;48.808;9.182;2023-05-10T15:19:02;1.27;;;0.80;;
146;SDS011;45999;48.808;9.182;2023-05-10T15:21:28;2.87;;;0.90;;
146;SDS011;45999;48.808;9.182;2023-05-10T15:23:59;2.87;;;0.80;;
146;SDS011;45999;48.808;9.182;2023-05-10T15:26:26;1.20;;;0.70;;
146;SDS011;45999;48.808;9.182;2023-05-10T15:28:52;2.03;;;0.93;;
146;SDS011;45999;48.808;9.182;2023-05-10T15:31:19;0.70;;;0.60;;
146;SDS011;45999;48.808;9.182;2023-05-10T15:33:45;1.73;;;0.60;;
146;SDS011;45999;48.808;9.182;2023-05-10T15:36:11;1.17;;;0.87;;
146;SDS011;45999;48.808;9.182;2023-05-10T15:38:38;2.13;;;0.80;;
146;SDS011;45999;48.808;9.182;2023-05-10T15:41:04;3.40;;;0.67;;
146;SDS011;45999;48.808;9.182;2023-05-10T15:43:31;0.90;;;0.60;;
146;SDS011;45999;48.808;9.182;2023-05-10T15:45:57;0.90;;;0.70;;
146;SDS011;45999;48.808;9.182;2023-05-10T15:48:23;1.53;;;0.67;;
146;SDS011;45999;48.808;9.182;2023-05-10T15:50:50;3.20;;;0.80;;